sensor_id;sensor_type;location;lat;lon;timestamp;P1;durP1;ratioP1;P2;durP2;ratioP2
21546;SDS011;41275;51.912;4.388;2023-04-24T00:03:35;3.50;;;1.40;;
21546;SDS011;41275;51.912;4.388;2023-04-24T00:08:56;4.10;;;1.08;;
21546;SDS011;41275;51.912;4.388;2023-04-24T00:14:18;3.00;;;1.63;;
21546;SDS011;41275;51.912;4.388;2023-04-24T00:19:39;4.40;;;2.22;;
21546;SDS011;41275;51.912;4.388;2023-04-24T00:25:00;3.03;;;1.13;;
21546;SDS011;41275;51.912;4.388;2023-04-24T00:30:21;2.92;;;1.10;;
21546;SDS011;41275;51.912;4.388;2023-04-24T00:35:43;3.65;;;1.00;;
21546;SDS011;41275;51.912;4.388;2023-04-24T00:41:04;3.65;;;0.80;;
21546;SDS011;41275;51.912;4.388;2023-04-24T00:46:25;2.45;;;1.02;;
21546;SDS011;41275;51.912;4.388;2023-04-24T00:51:46;3.70;;;1.40;;
21546;SDS011;41275;51.912;4.388;2023-04-24T00:57:10;3.90;;;2.13;;
21546;SDS011;41275;51.912;4.388;2023-04-24T01:02:31;4.82;;;2.30;;
21546;SDS011;41275;51.912;4.388;2023-04-24T01:07:55;4.72;;;2.10;;
21546;SDS011;41275;51.912;4.388;2023-04-24T01:13:16;4.50;;;2.53;;
21546;SDS011;41275;51.912;4.388;2023-04-24T01:18:39;6.20;;;2.80;;
21546;SDS011;41275;51.912;4.388;2023-04-24T01:24:00;7.43;;;2.60;;
21546;SDS011;41275;51.912;4.388;2023-04-24T01:29:21;4.03;;;2.03;;
21546;SDS011;41275;51.912;4.388;2023-04-24T01:34:42;4.53;;;1.80;;
21546;SDS011;41275;51.912;4.388;2023-04-24T01:40:05;2.97;;;1.88;;
21546;SDS011;41275;51.912;4.388;2023-04-24T01:45:27;6.67;;;2.20;;
21546;SDS011;41275;51.912;4.388;2023-04-24T01:50:48;7.47;;;2.03;;
21546;SDS011;41275;51.912;4.388;2023-04-24T01:56:09;3.10;;;1.53;;
21546;SDS011;41275;51.912;4.388;2023-04-24T02:01:34;3.17;;;1.27;;
21546;SDS011;41275;51.912;4.388;2023-04-24T02:06:59;3.00;;;1.45;;
21546;SDS011;41275;51.912;4.388;2023-04-24T02:12:20;4.23;;;1.67;;
21546;SDS011;41275;51.912;4.388;2023-04-24T02:17:41;5.53;;;1.80;;
21546;SDS011;41275;51.912;4.388;2023-04-24T02:23:02;3.88;;;1.70;;
21546;SDS011;41275;51.912;4.388;2023-04-24T02:28:24;4.22;;;1.77;;
21546;SDS011;41275;51.912;4.388;2023-04-24T02:33:45;3.60;;;1.90;;
21546;SDS011;41275;51.912;4.388;2023-04-24T02:39:06;3.00;;;1.48;;
21546;SDS011;41275;51.912;4.388;2023-04-24T02:44:27;4.13;;;1.27;;
21546;SDS011;41275;51.912;4.388;2023-04-24T02:49:48;2.47;;;1.10;;
21546;SDS011;41275;51.912;4.388;2023-04-24T02:55:10;1.33;;;0.93;;
21546;SDS011;41275;51.912;4.388;2023-04-24T03:00:31;2.20;;;1.20;;
21546;SDS011;41275;51.912;4.388;2023-04-24T03:05:52;2.55;;;1.15;;
21546;SDS011;41275;51.912;4.388;2023-04-24T03:11:13;3.45;;;1.08;;
21546;SDS011;41275;51.912;4.388;2023-04-24T03:16:35;1.77;;;0.70;;
21546;SDS011;41275;51.912;4.388;2023-04-24T03:21:56;0.77;;;0.40;;
21546;SDS011;41275;51.912;4.388;2023-04-24T03:27:17;1.77;;;0.63;;
21546;SDS011;41275;51.912;4.388;2023-04-24T03:32:38;4.72;;;1.58;;
21546;SDS011;41275;51.912;4.388;2023-04-24T03:38:00;4.60;;;1.20;;
21546;SDS011;41275;51.912;4.388;2023-04-24T03:43:21;2.73;;;1.10;;
21546;SDS011;41275;51.912;4.388;2023-04-24T03:48:42;6.23;;;1.20;;
21546;SDS011;41275;51.912;4.388;2023-04-24T03:54:03;5.13;;;1.10;;
21546;SDS011;41275;51.912;4.388;2023-04-24T03:59:24;5.15;;;0.98;;
21546;SDS011;41275;51.912;4.388;2023-04-24T04:04:46;3.67;;;1.00;;
21546;SDS011;41275;51.912;4.388;2023-04-24T04:10:07;2.83;;;1.10;;
21546;SDS011;41275;51.912;4.388;2023-04-24T04:15:28;7.63;;;2.33;;
21546;SDS011;41275;51.912;4.388;2023-04-24T04:20:49;5.77;;;2.40;;
21546;SDS011;41275;51.912;4.388;2023-04-24T04:26:11;7.37;;;2.47;;
21546;SDS011;41275;51.912;4.388;2023-04-24T04:31:33;6.80;;;2.20;;
21546;SDS011;41275;51.912;4.388;2023-04-24T04:36:54;8.03;;;2.37;;
21546;SDS011;41275;51.912;4.388;2023-04-24T04:42:15;7.70;;;3.15;;
21546;SDS011;41275;51.912;4.388;2023-04-24T04:47:37;9.73;;;3.97;;
21546;SDS011;41275;51.912;4.388;2023-04-24T04:53:00;12.68;;;4.30;;
21546;SDS011;41275;51.912;4.388;2023-04-24T04:58:21;8.52;;;4.20;;
21546;SDS011;41275;51.912;4.388;2023-04-24T05:03:42;9.13;;;4.50;;
21546;SDS011;41275;51.912;4.388;2023-04-24T05:09:03;13.18;;;4.90;;
21546;SDS011;41275;51.912;4.388;2023-04-24T05:14:25;14.70;;;5.50;;
21546;SDS011;41275;51.912;4.388;2023-04-24T05:19:46;21.85;;;7.00;;
21546;SDS011;41275;51.912;4.388;2023-04-24T05:25:07;17.27;;;6.97;;
21546;SDS011;41275;51.912;4.388;2023-04-24T05:30:29;24.17;;;7.17;;
21546;SDS011;41275;51.912;4.388;2023-04-24T05:35:50;15.77;;;6.33;;
21546;SDS011;41275;51.912;4.388;2023-04-24T05:41:13;18.33;;;6.73;;
21546;SDS011;41275;51.912;4.388;2023-04-24T05:46:34;18.37;;;6.80;;
21546;SDS011;41275;51.912;4.388;2023-04-24T05:51:56;19.45;;;6.60;;
21546;SDS011;41275;51.912;4.388;2023-04-24T05:57:18;15.23;;;5.30;;
21546;SDS011;41275;51.912;4.388;2023-04-24T06:02:39;17.63;;;4.65;;
21546;SDS011;41275;51.912;4.388;2023-04-24T06:08:00;20.90;;;4.43;;
21546;SDS011;41275;51.912;4.388;2023-04-24T06:13:22;15.25;;;4.07;;
21546;SDS011;41275;51.912;4.388;2023-04-24T06:18:43;14.65;;;4.00;;
21546;SDS011;41275;51.912;4.388;2023-04-24T06:24:05;17.95;;;3.90;;
21546;SDS011;41275;51.912;4.388;2023-04-24T06:29:27;16.23;;;3.20;;
21546;SDS011;41275;51.912;4.388;2023-04-24T06:34:48;20.70;;;3.85;;
21546;SDS011;41275;51.912;4.388;2023-04-24T06:40:20;16.05;;;3.42;;
21546;SDS011;41275;51.912;4.388;2023-04-24T06:45:45;19.83;;;3.80;;
21546;SDS011;41275;51.912;4.388;2023-04-24T06:51:07;15.85;;;3.20;;
21546;SDS011;41275;51.912;4.388;2023-04-24T06:56:31;14.63;;;2.87;;
21546;SDS011;41275;51.912;4.388;2023-04-24T07:01:56;17.90;;;3.05;;
21546;SDS011;41275;51.912;4.388;2023-04-24T07:07:17;9.65;;;1.98;;
21546;SDS011;41275;51.912;4.388;2023-04-24T07:12:38;21.00;;;2.70;;
21546;SDS011;41275;51.912;4.388;2023-04-24T07:18:00;14.13;;;2.30;;
21546;SDS011;41275;51.912;4.388;2023-04-24T07:23:21;11.73;;;2.17;;
21546;SDS011;41275;51.912;4.388;2023-04-24T07:28:42;12.10;;;2.05;;
21546;SDS011;41275;51.912;4.388;2023-04-24T07:34:03;11.98;;;1.77;;
21546;SDS011;41275;51.912;4.388;2023-04-24T07:39:25;11.35;;;2.10;;
21546;SDS011;41275;51.912;4.388;2023-04-24T07:44:47;10.07;;;1.75;;
21546;SDS011;41275;51.912;4.388;2023-04-24T07:50:08;8.05;;;1.73;;
21546;SDS011;41275;51.912;4.388;2023-04-24T07:55:30;10.70;;;2.05;;
21546;SDS011;41275;51.912;4.388;2023-04-24T08:00:51;9.23;;;2.03;;
21546;SDS011;41275;51.912;4.388;2023-04-24T08:06:13;8.83;;;1.80;;
21546;SDS011;41275;51.912;4.388;2023-04-24T08:11:34;8.97;;;2.03;;
21546;SDS011;41275;51.912;4.388;2023-04-24T08:16:55;9.70;;;1.53;;
21546;SDS011;41275;51.912;4.388;2023-04-24T08:22:17;6.75;;;1.40;;
21546;SDS011;41275;51.912;4.388;2023-04-24T08:27:38;8.10;;;1.50;;
21546;SDS011;41275;51.912;4.388;2023-04-24T08:32:59;7.13;;;1.40;;
21546;SDS011;41275;51.912;4.388;2023-04-24T08:38:20;6.40;;;1.48;;
21546;SDS011;41275;51.912;4.388;2023-04-24T08:43:42;7.82;;;1.33;;
21546;SDS011;41275;51.912;4.388;2023-04-24T08:49:04;5.03;;;1.40;;
21546;SDS011;41275;51.912;4.388;2023-04-24T08:54:25;7.27;;;1.50;;
21546;SDS011;41275;51.912;4.388;2023-04-24T08:59:47;6.70;;;0.95;;
21546;SDS011;41275;51.912;4.388;2023-04-24T09:05:09;4.72;;;0.95;;
21546;SDS011;41275;51.912;4.388;2023-04-24T09:10:31;2.57;;;0.77;;
21546;SDS011;41275;51.912;4.388;2023-04-24T09:15:55;5.95;;;0.88;;
21546;SDS011;41275;51.912;4.388;2023-04-24T09:21:19;5.22;;;0.90;;
21546;SDS011;41275;51.912;4.388;2023-04-24T09:26:42;2.88;;;0.43;;
21546;SDS011;41275;51.912;4.388;2023-04-24T09:32:19;3.60;;;0.55;;
21546;SDS011;41275;51.912;4.388;2023-04-24T09:37:43;6.00;;;0.60;;
21546;SDS011;41275;51.912;4.388;2023-04-24T09:43:05;3.75;;;0.55;;
21546;SDS011;41275;51.912;4.388;2023-04-24T09:48:32;2.78;;;0.57;;
21546;SDS011;41275;51.912;4.388;2023-04-24T09:53:54;5.07;;;0.93;;
21546;SDS011;41275;51.912;4.388;2023-04-24T09:59:16;5.37;;;0.90;;
21546;SDS011;41275;51.912;4.388;2023-04-24T10:04:55;5.00;;;0.68;;
21546;SDS011;41275;51.912;4.388;2023-04-24T10:10:17;6.75;;;0.80;;
21546;SDS011;41275;51.912;4.388;2023-04-24T10:15:40;5.20;;;0.60;;
21546;SDS011;41275;51.912;4.388;2023-04-24T10:21:04;5.27;;;0.90;;
21546;SDS011;41275;51.912;4.388;2023-04-24T10:26:26;4.25;;;0.70;;
21546;SDS011;41275;51.912;4.388;2023-04-24T10:31:55;7.83;;;1.00;;
21546;SDS011;41275;51.912;4.388;2023-04-24T10:37:16;6.87;;;1.10;;
21546;SDS011;41275;51.912;4.388;2023-04-24T10:42:40;6.87;;;1.10;;
21546;SDS011;41275;51.912;4.388;2023-04-24T10:48:04;5.00;;;0.98;;
21546;SDS011;41275;51.912;4.388;2023-04-24T10:53:31;3.17;;;0.50;;
21546;SDS011;41275;51.912;4.388;2023-04-24T10:58:55;4.45;;;0.70;;
21546;SDS011;41275;51.912;4.388;2023-04-24T11:04:21;3.38;;;0.90;;
21546;SDS011;41275;51.912;4.388;2023-04-24T11:09:57;3.40;;;0.93;;
21546;SDS011;41275;51.912;4.388;2023-04-24T11:15:19;2.97;;;0.60;;
21546;SDS011;41275;51.912;4.388;2023-04-24T11:20:44;5.55;;;1.08;;
21546;SDS011;41275;51.912;4.388;2023-04-24T11:26:18;4.67;;;0.73;;
21546;SDS011;41275;51.912;4.388;2023-04-24T11:31:44;5.93;;;0.97;;
21546;SDS011;41275;51.912;4.388;2023-04-24T11:37:10;4.63;;;0.68;;
21546;SDS011;41275;51.912;4.388;2023-04-24T11:42:35;6.18;;;1.30;;
21546;SDS011;41275;51.912;4.388;2023-04-24T11:47:57;4.70;;;0.98;;
21546;SDS011;41275;51.912;4.388;2023-04-24T11:53:20;11.38;;;1.27;;
21546;SDS011;41275;51.912;4.388;2023-04-24T11:58:42;6.17;;;1.33;;
21546;SDS011;41275;51.912;4.388;2023-04-24T12:04:03;6.20;;;1.00;;
21546;SDS011;41275;51.912;4.388;2023-04-24T12:09:24;9.43;;;1.30;;
21546;SDS011;41275;51.912;4.388;2023-04-24T12:14:49;7.20;;;1.40;;
21546;SDS011;41275;51.912;4.388;2023-04-24T12:20:13;5.93;;;1.48;;
21546;SDS011;41275;51.912;4.388;2023-04-24T12:25:35;8.82;;;1.63;;
21546;SDS011;41275;51.912;4.388;2023-04-24T12:30:56;6.20;;;1.30;;
21546;SDS011;41275;51.912;4.388;2023-04-24T12:36:18;9.02;;;1.50;;
21546;SDS011;41275;51.912;4.388;2023-04-24T12:41:54;8.03;;;1.63;;
21546;SDS011;41275;51.912;4.388;2023-04-24T12:47:20;9.57;;;1.57;;
21546;SDS011;41275;51.912;4.388;2023-04-24T12:52:42;8.73;;;1.70;;
21546;SDS011;41275;51.912;4.388;2023-04-24T12:58:04;10.25;;;1.58;;
21546;SDS011;41275;51.912;4.388;2023-04-24T13:03:25;10.57;;;1.50;;
21546;SDS011;41275;51.912;4.388;2023-04-24T13:08:46;11.07;;;1.67;;
21546;SDS011;41275;51.912;4.388;2023-04-24T13:14:09;12.77;;;1.97;;
21546;SDS011;41275;51.912;4.388;2023-04-24T13:19:35;9.97;;;2.50;;
21546;SDS011;41275;51.912;4.388;2023-04-24T13:25:01;9.77;;;2.10;;
21546;SDS011;41275;51.912;4.388;2023-04-24T13:30:22;8.75;;;2.10;;
21546;SDS011;41275;51.912;4.388;2023-04-24T13:35:43;11.27;;;2.78;;
21546;SDS011;41275;51.912;4.388;2023-04-24T13:41:04;15.33;;;2.97;;
21546;SDS011;41275;51.912;4.388;2023-04-24T13:46:25;12.67;;;2.90;;
21546;SDS011;41275;51.912;4.388;2023-04-24T13:51:47;8.75;;;1.98;;
21546;SDS011;41275;51.912;4.388;2023-04-24T13:57:08;5.97;;;1.70;;
21546;SDS011;41275;51.912;4.388;2023-04-24T14:02:29;6.18;;;1.67;;
21546;SDS011;41275;51.912;4.388;2023-04-24T14:07:50;7.77;;;1.83;;
21546;SDS011;41275;51.912;4.388;2023-04-24T14:13:12;9.57;;;2.35;;
21546;SDS011;41275;51.912;4.388;2023-04-24T14:18:33;11.63;;;2.63;;
21546;SDS011;41275;51.912;4.388;2023-04-24T14:23:54;12.27;;;2.73;;
21546;SDS011;41275;51.912;4.388;2023-04-24T14:29:16;13.27;;;2.83;;
21546;SDS011;41275;51.912;4.388;2023-04-24T14:34:37;14.07;;;2.63;;
21546;SDS011;41275;51.912;4.388;2023-04-24T14:39:58;9.90;;;2.13;;
21546;SDS011;41275;51.912;4.388;2023-04-24T14:45:19;8.80;;;2.15;;
21546;SDS011;41275;51.912;4.388;2023-04-24T14:50:41;11.38;;;1.95;;
21546;SDS011;41275;51.912;4.388;2023-04-24T14:56:04;11.27;;;2.30;;
21546;SDS011;41275;51.912;4.388;2023-04-24T15:01:26;11.83;;;2.23;;
21546;SDS011;41275;51.912;4.388;2023-04-24T15:06:47;9.10;;;2.30;;
21546;SDS011;41275;51.912;4.388;2023-04-24T15:12:08;10.20;;;2.20;;
21546;SDS011;41275;51.912;4.388;2023-04-24T15:17:30;11.57;;;2.58;;
21546;SDS011;41275;51.912;4.388;2023-04-24T15:22:51;14.83;;;2.43;;
21546;SDS011;41275;51.912;4.388;2023-04-24T15:28:13;9.52;;;2.28;;
21546;SDS011;41275;51.912;4.388;2023-04-24T15:33:34;14.02;;;2.80;;
21546;SDS011;41275;51.912;4.388;2023-04-24T15:38:55;10.65;;;2.67;;
21546;SDS011;41275;51.912;4.388;2023-04-24T15:44:16;7.40;;;2.17;;
21546;SDS011;41275;51.912;4.388;2023-04-24T15:49:38;15.07;;;3.03;;
21546;SDS011;41275;51.912;4.388;2023-04-24T15:54:59;9.65;;;2.63;;
21546;SDS011;41275;51.912;4.388;2023-04-24T16:00:20;15.05;;;3.20;;
21546;SDS011;41275;51.912;4.388;2023-04-24T16:05:41;12.32;;;2.60;;
21546;SDS011;41275;51.912;4.388;2023-04-24T16:11:02;8.48;;;2.50;;
21546;SDS011;41275;51.912;4.388;2023-04-24T16:16:24;15.85;;;2.55;;
21546;SDS011;41275;51.912;4.388;2023-04-24T16:21:45;6.85;;;2.28;;
21546;SDS011;41275;51.912;4.388;2023-04-24T16:27:06;7.80;;;2.20;;
21546;SDS011;41275;51.912;4.388;2023-04-24T16:32:27;9.60;;;2.27;;
21546;SDS011;41275;51.912;4.388;2023-04-24T16:37:49;10.32;;;2.25;;
21546;SDS011;41275;51.912;4.388;2023-04-24T16:43:10;11.38;;;2.85;;
21546;SDS011;41275;51.912;4.388;2023-04-24T16:48:40;10.67;;;2.50;;
21546;SDS011;41275;51.912;4.388;2023-04-24T16:54:01;7.03;;;2.10;;
21546;SDS011;41275;51.912;4.388;2023-04-24T16:59:23;13.57;;;2.50;;
21546;SDS011;41275;51.912;4.388;2023-04-24T17:04:44;9.32;;;2.40;;
21546;SDS011;41275;51.912;4.388;2023-04-24T17:10:11;11.73;;;2.65;;
21546;SDS011;41275;51.912;4.388;2023-04-24T17:15:34;9.02;;;2.30;;
21546;SDS011;41275;51.912;4.388;2023-04-24T17:20:56;11.25;;;2.50;;
21546;SDS011;41275;51.912;4.388;2023-04-24T17:26:17;13.43;;;2.42;;
21546;SDS011;41275;51.912;4.388;2023-04-24T17:31:38;10.20;;;2.60;;
21546;SDS011;41275;51.912;4.388;2023-04-24T17:36:59;13.32;;;2.40;;
21546;SDS011;41275;51.912;4.388;2023-04-24T17:42:20;9.82;;;2.08;;
21546;SDS011;41275;51.912;4.388;2023-04-24T17:47:42;8.80;;;1.98;;
21546;SDS011;41275;51.912;4.388;2023-04-24T17:53:03;12.45;;;2.38;;
21546;SDS011;41275;51.912;4.388;2023-04-24T17:58:24;12.32;;;2.40;;
21546;SDS011;41275;51.912;4.388;2023-04-24T18:03:46;9.77;;;2.17;;
21546;SDS011;41275;51.912;4.388;2023-04-24T18:09:07;11.73;;;2.53;;
21546;SDS011;41275;51.912;4.388;2023-04-24T18:14:28;9.95;;;2.03;;
21546;SDS011;41275;51.912;4.388;2023-04-24T18:19:50;11.13;;;2.53;;
21546;SDS011;41275;51.912;4.388;2023-04-24T18:25:11;13.30;;;2.38;;
21546;SDS011;41275;51.912;4.388;2023-04-24T18:30:33;11.40;;;2.33;;
21546;SDS011;41275;51.912;4.388;2023-04-24T18:35:54;9.32;;;1.73;;
21546;SDS011;41275;51.912;4.388;2023-04-24T18:41:19;10.25;;;2.33;;
21546;SDS011;41275;51.912;4.388;2023-04-24T18:46:40;8.53;;;1.80;;
21546;SDS011;41275;51.912;4.388;2023-04-24T18:52:01;10.43;;;2.30;;
21546;SDS011;41275;51.912;4.388;2023-04-24T18:57:26;15.40;;;2.40;;
21546;SDS011;41275;51.912;4.388;2023-04-24T19:02:47;14.27;;;2.37;;
21546;SDS011;41275;51.912;4.388;2023-04-24T19:08:08;9.90;;;1.87;;
21546;SDS011;41275;51.912;4.388;2023-04-24T19:13:29;10.00;;;1.93;;
21546;SDS011;41275;51.912;4.388;2023-04-24T19:18:51;4.80;;;1.33;;
21546;SDS011;41275;51.912;4.388;2023-04-24T19:24:12;5.70;;;1.88;;
21546;SDS011;41275;51.912;4.388;2023-04-24T19:29:33;8.55;;;1.95;;
21546;SDS011;41275;51.912;4.388;2023-04-24T19:34:54;10.23;;;2.10;;
21546;SDS011;41275;51.912;4.388;2023-04-24T19:40:16;9.48;;;2.45;;
21546;SDS011;41275;51.912;4.388;2023-04-24T19:45:37;11.57;;;2.50;;
21546;SDS011;41275;51.912;4.388;2023-04-24T19:50:58;15.68;;;3.10;;
21546;SDS011;41275;51.912;4.388;2023-04-24T19:56:26;13.03;;;2.30;;
21546;SDS011;41275;51.912;4.388;2023-04-24T20:01:47;10.73;;;2.30;;
21546;SDS011;41275;51.912;4.388;2023-04-24T20:07:10;13.38;;;2.20;;
21546;SDS011;41275;51.912;4.388;2023-04-24T20:12:31;9.85;;;2.25;;
21546;SDS011;41275;51.912;4.388;2023-04-24T20:17:52;6.90;;;2.10;;
21546;SDS011;41275;51.912;4.388;2023-04-24T20:23:14;16.13;;;2.45;;
21546;SDS011;41275;51.912;4.388;2023-04-24T20:28:35;9.45;;;1.90;;
21546;SDS011;41275;51.912;4.388;2023-04-24T20:33:57;12.77;;;1.97;;
21546;SDS011;41275;51.912;4.388;2023-04-24T20:39:20;8.53;;;2.13;;
21546;SDS011;41275;51.912;4.388;2023-04-24T20:44:42;7.40;;;1.90;;
21546;SDS011;41275;51.912;4.388;2023-04-24T20:50:05;11.77;;;2.00;;
21546;SDS011;41275;51.912;4.388;2023-04-24T20:55:27;11.35;;;2.10;;
21546;SDS011;41275;51.912;4.388;2023-04-24T21:00:48;9.55;;;1.90;;
21546;SDS011;41275;51.912;4.388;2023-04-24T21:06:11;10.90;;;1.87;;
21546;SDS011;41275;51.912;4.388;2023-04-24T21:11:32;10.37;;;2.10;;
21546;SDS011;41275;51.912;4.388;2023-04-24T21:16:55;10.70;;;1.92;;
21546;SDS011;41275;51.912;4.388;2023-04-24T21:22:20;8.63;;;2.13;;
21546;SDS011;41275;51.912;4.388;2023-04-24T21:27:42;11.25;;;2.15;;
21546;SDS011;41275;51.912;4.388;2023-04-24T21:33:03;10.30;;;2.30;;
21546;SDS011;41275;51.912;4.388;2023-04-24T21:38:28;11.68;;;2.25;;
21546;SDS011;41275;51.912;4.388;2023-04-24T21:43:49;11.90;;;2.22;;
21546;SDS011;41275;51.912;4.388;2023-04-24T21:49:10;10.93;;;3.10;;
21546;SDS011;41275;51.912;4.388;2023-04-24T21:54:36;10.68;;;2.40;;
21546;SDS011;41275;51.912;4.388;2023-04-24T21:59:58;12.07;;;2.40;;
21546;SDS011;41275;51.912;4.388;2023-04-24T22:05:19;13.00;;;2.50;;
21546;SDS011;41275;51.912;4.388;2023-04-24T22:10:40;14.70;;;2.45;;
21546;SDS011;41275;51.912;4.388;2023-04-24T22:16:01;15.00;;;2.50;;
21546;SDS011;41275;51.912;4.388;2023-04-24T22:21:23;13.13;;;2.28;;
21546;SDS011;41275;51.912;4.388;2023-04-24T22:26:44;15.73;;;2.50;;
21546;SDS011;41275;51.912;4.388;2023-04-24T22:32:05;12.63;;;2.70;;
21546;SDS011;41275;51.912;4.388;2023-04-24T22:37:26;12.98;;;2.75;;
21546;SDS011;41275;51.912;4.388;2023-04-24T22:42:48;27.52;;;3.05;;
21546;SDS011;41275;51.912;4.388;2023-04-24T22:48:09;14.38;;;2.95;;
21546;SDS011;41275;51.912;4.388;2023-04-24T22:53:30;14.05;;;2.92;;
21546;SDS011;41275;51.912;4.388;2023-04-24T22:58:51;14.55;;;2.92;;
21546;SDS011;41275;51.912;4.388;2023-04-24T23:04:13;18.58;;;3.60;;
21546;SDS011;41275;51.912;4.388;2023-04-24T23:09:34;17.40;;;2.83;;
21546;SDS011;41275;51.912;4.388;2023-04-24T23:14:55;12.60;;;3.30;;
21546;SDS011;41275;51.912;4.388;2023-04-24T23:20:16;11.83;;;2.60;;
21546;SDS011;41275;51.912;4.388;2023-04-24T23:25:38;13.88;;;2.67;;
21546;SDS011;41275;51.912;4.388;2023-04-24T23:30:59;17.13;;;2.97;;
21546;SDS011;41275;51.912;4.388;2023-04-24T23:36:21;17.27;;;3.40;;
21546;SDS011;41275;51.912;4.388;2023-04-24T23:41:42;13.57;;;3.07;;
21546;SDS011;41275;51.912;4.388;2023-04-24T23:47:04;17.60;;;2.90;;
21546;SDS011;41275;51.912;4.388;2023-04-24T23:52:25;14.40;;;3.00;;
21546;SDS011;41275;51.912;4.388;2023-04-24T23:57:46;16.73;;;3.10;;
